createdAt,value
2018-11-10T00:01:28.408Z,13.41
2018-11-10T00:03:56.961Z,13.35
2018-11-10T00:06:25.556Z,13.24
2018-11-10T00:08:54.049Z,13.67
2018-11-10T00:11:22.473Z,13.50
2018-11-10T00:13:50.968Z,13.46
2018-11-10T00:16:19.638Z,13.82
2018-11-10T00:18:48.036Z,14.44
2018-11-10T00:21:16.468Z,13.92
2018-11-10T00:23:45.010Z,14.00
2018-11-10T00:26:13.455Z,13.06
2018-11-10T00:28:41.992Z,14.43
2018-11-10T00:31:10.424Z,14.47
2018-11-10T00:33:38.872Z,13.75
2018-11-10T00:36:07.398Z,13.75
2018-11-10T00:38:35.858Z,14.17
2018-11-10T00:41:04.392Z,13.71
2018-11-10T00:43:32.818Z,13.66
2018-11-10T00:46:01.357Z,14.45
2018-11-10T00:48:29.792Z,14.13
2018-11-10T00:50:58.319Z,14.00
2018-11-10T00:53:26.793Z,13.95
2018-11-10T00:55:55.289Z,14.40
2018-11-10T00:58:23.734Z,13.86
2018-11-10T01:00:52.262Z,13.25
2018-11-10T01:03:20.734Z,13.58
2018-11-10T01:05:49.193Z,13.39
2018-11-10T01:08:17.694Z,13.47
2018-11-10T01:10:46.359Z,12.81
2018-11-10T01:13:14.776Z,12.64
2018-11-10T01:15:43.244Z,14.19
2018-11-10T01:18:11.656Z,13.16
2018-11-10T01:20:40.090Z,12.98
2018-11-10T01:23:08.504Z,13.45
2018-11-10T01:25:37.008Z,12.83
2018-11-10T01:28:05.515Z,12.95
2018-11-10T01:30:33.992Z,12.70
2018-11-10T01:33:02.422Z,13.14
2018-11-10T01:35:30.875Z,13.12
2018-11-10T01:37:59.294Z,12.48
2018-11-10T01:40:27.779Z,12.62
2018-11-10T01:42:56.250Z,12.22
2018-11-10T01:45:24.781Z,12.21
2018-11-10T01:47:53.198Z,12.18
2018-11-10T01:50:21.637Z,11.68
2018-11-10T01:52:50.123Z,12.42
2018-11-10T01:55:18.555Z,12.16
2018-11-10T01:57:46.993Z,12.23
2018-11-10T02:00:16.774Z,12.08
2018-11-10T02:02:45.887Z,11.51
2018-11-10T02:05:14.504Z,11.66
2018-11-10T02:07:42.987Z,12.08
2018-11-10T02:10:13.770Z,11.77
2018-11-10T02:12:42.487Z,11.92
2018-11-10T02:15:12.862Z,12.03
2018-11-10T02:17:41.383Z,12.28
2018-11-10T02:20:13.062Z,12.07
2018-11-10T02:22:41.604Z,12.09
2018-11-10T02:25:12.118Z,12.12
2018-11-10T02:27:40.644Z,11.94
2018-11-10T02:30:10.337Z,11.72
2018-11-10T02:32:38.846Z,11.55
2018-11-10T02:35:07.912Z,11.74
2018-11-10T02:37:36.934Z,12.01
2018-11-10T02:40:06.335Z,12.35
2018-11-10T02:42:34.838Z,12.16
2018-11-10T02:45:03.323Z,11.80
2018-11-10T02:47:31.771Z,12.23
2018-11-10T02:50:00.257Z,12.49
2018-11-10T02:52:28.722Z,12.33
2018-11-10T02:54:57.148Z,12.47
2018-11-10T02:57:25.594Z,12.12
2018-11-10T02:59:54.076Z,11.79
2018-11-10T03:02:22.520Z,11.38
2018-11-10T03:04:50.968Z,11.59
2018-11-10T03:07:19.410Z,11.71
2018-11-10T03:09:48.019Z,11.40
2018-11-10T03:12:16.515Z,11.02
2018-11-10T03:14:44.965Z,11.49
2018-11-10T03:17:13.415Z,11.50
2018-11-10T03:19:41.892Z,11.76
2018-11-10T03:22:10.366Z,11.62
2018-11-10T03:24:39.532Z,10.96
2018-11-10T03:27:09.017Z,11.73
2018-11-10T03:29:37.527Z,11.71
2018-11-10T03:32:06.673Z,11.58
2018-11-10T03:34:36.153Z,11.71
2018-11-10T03:37:04.669Z,11.50
2018-11-10T03:39:33.224Z,11.92
2018-11-10T03:42:01.720Z,11.63
2018-11-10T03:44:30.159Z,11.82
2018-11-10T03:46:58.592Z,11.77
2018-11-10T03:49:26.995Z,11.85
2018-11-10T03:51:55.427Z,11.71
2018-11-10T03:54:23.894Z,11.62
2018-11-10T03:56:52.415Z,11.81
2018-11-10T03:59:20.844Z,11.81
2018-11-10T04:01:49.266Z,12.07
2018-11-10T04:04:17.656Z,11.61
2018-11-10T04:06:46.109Z,11.78
2018-11-10T04:09:14.583Z,11.85
2018-11-10T04:11:43.041Z,12.17
2018-11-10T04:14:11.583Z,12.11
2018-11-10T04:16:40.068Z,12.81
2018-11-10T04:19:08.460Z,12.01
2018-11-10T04:21:36.871Z,12.82
2018-11-10T04:24:05.520Z,12.42
2018-11-10T04:26:33.934Z,12.21
2018-11-10T04:29:02.428Z,12.13
2018-11-10T04:31:30.850Z,12.59
2018-11-10T04:33:59.330Z,11.75
2018-11-10T04:36:27.784Z,12.31
2018-11-10T04:38:56.235Z,12.41
2018-11-10T04:41:24.758Z,12.38
2018-11-10T04:43:53.220Z,11.98
2018-11-10T04:46:21.748Z,12.57
2018-11-10T04:48:50.183Z,11.72
2018-11-10T04:51:18.616Z,12.59
2018-11-10T04:53:47.055Z,12.09
2018-11-10T04:56:15.507Z,12.57
2018-11-10T04:58:44.025Z,11.99
2018-11-10T05:01:12.632Z,11.90
2018-11-10T05:03:41.025Z,11.71
2018-11-10T05:06:09.533Z,11.50
2018-11-10T05:08:38.084Z,11.68
2018-11-10T05:11:06.740Z,12.29
2018-11-10T05:13:35.188Z,12.16
2018-11-10T05:16:03.640Z,12.22
2018-11-10T05:18:33.051Z,11.82
2018-11-10T05:21:01.613Z,12.20
2018-11-10T05:23:30.084Z,12.32
2018-11-10T05:26:00.272Z,11.99
2018-11-10T05:28:28.771Z,12.03
2018-11-10T05:30:57.345Z,11.99
2018-11-10T05:33:26.130Z,11.65
2018-11-10T05:35:54.588Z,12.15
2018-11-10T05:38:23.060Z,12.10
2018-11-10T05:40:51.469Z,12.61
2018-11-10T05:43:19.937Z,13.03
2018-11-10T05:45:48.372Z,12.65
2018-11-10T05:48:16.824Z,13.00
2018-11-10T05:50:45.281Z,13.25
2018-11-10T05:53:13.765Z,12.60
2018-11-10T05:55:42.273Z,12.59
2018-11-10T05:58:10.792Z,12.13
2018-11-10T06:00:39.270Z,11.77
2018-11-10T06:03:07.808Z,12.20
2018-11-10T06:05:36.272Z,12.33
2018-11-10T06:08:05.090Z,12.67
2018-11-10T06:10:33.580Z,13.13
2018-11-10T06:13:02.047Z,13.39
2018-11-10T06:15:32.602Z,13.62
2018-11-10T06:18:01.069Z,13.99
2018-11-10T06:20:29.572Z,13.53
2018-11-10T06:22:58.045Z,13.23
2018-11-10T06:25:26.557Z,13.65
2018-11-10T06:27:54.989Z,13.30
2018-11-10T06:30:23.460Z,13.82
2018-11-10T06:32:51.966Z,14.17
2018-11-10T06:35:20.420Z,13.67
2018-11-10T06:37:48.942Z,13.68
2018-11-10T06:40:17.416Z,12.82
2018-11-10T06:42:45.880Z,12.89
2018-11-10T06:45:14.373Z,13.42
2018-11-10T06:47:42.955Z,13.71
2018-11-10T06:50:11.879Z,13.50
2018-11-10T06:52:41.394Z,13.03
2018-11-10T06:55:10.796Z,13.27
2018-11-10T06:57:39.341Z,12.82
2018-11-10T07:00:09.969Z,13.15
2018-11-10T07:02:38.415Z,12.86
2018-11-10T07:05:07.356Z,12.75
2018-11-10T07:07:35.852Z,13.00
2018-11-10T07:10:04.345Z,12.70
2018-11-10T07:12:32.793Z,12.55
2018-11-10T07:15:01.290Z,13.29
2018-11-10T07:17:30.554Z,12.44
2018-11-10T07:19:59.025Z,12.26
2018-11-10T07:22:27.561Z,12.07
2018-11-10T07:24:57.026Z,12.39
2018-11-10T07:27:27.566Z,12.04
2018-11-10T07:29:56.128Z,12.32
2018-11-10T07:32:24.658Z,11.67
2018-11-10T07:34:53.126Z,11.99
2018-11-10T07:37:21.809Z,11.92
2018-11-10T07:39:50.234Z,12.73
2018-11-10T07:42:19.927Z,12.43
2018-11-10T07:44:48.652Z,11.49
2018-11-10T07:47:18.559Z,12.10
2018-11-10T07:49:48.250Z,11.64
2018-11-10T07:52:16.786Z,12.09
2018-11-10T07:54:45.394Z,12.16
2018-11-10T07:57:13.893Z,12.16
2018-11-10T07:59:42.429Z,12.61
2018-11-10T08:02:12.020Z,11.87
2018-11-10T08:04:40.499Z,12.43
2018-11-10T08:07:09.035Z,12.37
2018-11-10T08:09:37.662Z,11.83
2018-11-10T08:12:06.281Z,11.80
2018-11-10T08:14:35.060Z,12.21
2018-11-10T08:17:04.111Z,12.12
2018-11-10T08:19:32.743Z,12.43
2018-11-10T08:22:03.077Z,12.14
2018-11-10T08:24:31.638Z,12.06
2018-11-10T08:27:00.126Z,12.64
2018-11-10T08:29:28.551Z,12.53
2018-11-10T08:31:57.008Z,12.45
2018-11-10T08:34:25.437Z,13.47
2018-11-10T08:36:55.973Z,12.83
2018-11-10T08:39:25.501Z,12.99
2018-11-10T08:41:54.067Z,13.31
2018-11-10T08:44:24.459Z,13.06
2018-11-10T08:46:52.995Z,13.36
2018-11-10T08:49:21.541Z,13.14
2018-11-10T08:51:50.057Z,13.26
2018-11-10T08:54:18.574Z,12.58
2018-11-10T08:56:48.062Z,13.64
2018-11-10T08:59:16.576Z,13.89
2018-11-10T09:01:45.306Z,12.77
2018-11-10T09:04:13.929Z,13.17
2018-11-10T09:06:42.616Z,13.49
2018-11-10T09:09:12.876Z,12.70
2018-11-10T09:11:42.602Z,13.49
2018-11-10T09:14:11.300Z,13.34
2018-11-10T09:16:40.871Z,12.96
2018-11-10T09:19:13.648Z,13.36
2018-11-10T09:21:43.260Z,12.68
2018-11-10T09:24:12.208Z,13.71
2018-11-10T09:26:42.568Z,14.06
2018-11-10T09:29:11.402Z,12.92
2018-11-10T09:31:40.596Z,13.96
2018-11-10T09:34:10.094Z,12.97
2018-11-10T09:36:39.374Z,13.26
2018-11-10T09:39:09.726Z,14.41
2018-11-10T09:41:39.524Z,14.19
2018-11-10T09:44:10.459Z,13.66
2018-11-10T09:46:39.824Z,14.19
2018-11-10T09:49:08.691Z,14.10
2018-11-10T09:51:37.534Z,14.58
2018-11-10T09:54:07.116Z,14.16
2018-11-10T09:56:36.619Z,13.84
2018-11-10T09:59:05.976Z,14.06
2018-11-10T10:01:34.712Z,14.61
2018-11-10T10:04:02.952Z,14.52
2018-11-10T10:06:31.529Z,13.68
2018-11-10T10:09:00.061Z,13.85
2018-11-10T10:11:28.498Z,13.99
2018-11-10T10:13:57.076Z,14.17
2018-11-10T10:16:26.038Z,14.38
2018-11-10T10:18:54.429Z,14.05
2018-11-10T10:21:23.181Z,13.39
2018-11-10T10:23:51.685Z,14.24
2018-11-10T10:26:20.214Z,13.79
2018-11-10T10:28:48.917Z,13.79
2018-11-10T10:31:18.497Z,14.19
2018-11-10T10:33:47.068Z,14.12
2018-11-10T10:36:15.732Z,14.69
2018-11-10T10:38:44.469Z,13.87
2018-11-10T10:41:13.021Z,14.83
2018-11-10T10:43:41.613Z,14.11
2018-11-10T10:46:10.110Z,15.01
2018-11-10T10:48:38.809Z,14.72
2018-11-10T10:51:08.604Z,14.95
2018-11-10T10:53:37.159Z,14.91
2018-11-10T10:56:06.057Z,14.13
2018-11-10T10:58:34.454Z,14.46
2018-11-10T11:01:09.268Z,13.79
2018-11-10T11:03:43.209Z,13.65
2018-11-10T11:06:11.934Z,13.95
2018-11-10T11:08:40.473Z,13.78
2018-11-10T11:11:09.047Z,14.02
2018-11-10T11:13:37.612Z,13.99
2018-11-10T11:16:06.322Z,14.15
2018-11-10T11:18:34.848Z,14.60
2018-11-10T11:21:03.348Z,14.55
2018-11-10T11:23:31.912Z,14.25
2018-11-10T11:26:00.594Z,14.40
2018-11-10T11:28:29.232Z,13.94
2018-11-10T11:30:57.907Z,14.06
2018-11-10T11:33:26.465Z,14.28
2018-11-10T11:35:55.022Z,14.55
2018-11-10T11:38:23.568Z,14.70
2018-11-10T11:40:52.295Z,14.69
2018-11-10T11:43:20.998Z,14.32
2018-11-10T11:45:55.576Z,14.86
2018-11-10T11:48:26.838Z,14.88
2018-11-10T11:50:56.313Z,14.77
2018-11-10T11:56:00.676Z,14.33
2018-11-10T11:58:29.267Z,14.83
2018-11-10T12:00:57.631Z,15.32
2018-11-10T12:03:26.110Z,15.65
2018-11-10T12:05:54.720Z,15.13
2018-11-10T12:08:23.165Z,15.43
2018-11-10T12:10:51.872Z,15.34
2018-11-10T12:13:20.263Z,14.97
2018-11-10T12:15:48.728Z,14.84
2018-11-10T12:18:17.159Z,14.50
2018-11-10T12:20:45.702Z,14.85
2018-11-10T12:23:14.105Z,15.35
2018-11-10T12:25:42.571Z,14.69
2018-11-10T12:28:11.128Z,14.30
2018-11-10T12:30:39.574Z,14.91
2018-11-10T12:33:08.010Z,14.54
2018-11-10T12:35:36.372Z,14.52
2018-11-10T12:38:04.876Z,14.63
2018-11-10T12:40:33.327Z,15.19
2018-11-10T12:43:01.852Z,14.88
2018-11-10T12:45:30.431Z,14.98
2018-11-10T12:47:58.950Z,14.91
2018-11-10T12:50:27.393Z,14.85
2018-11-10T12:52:55.975Z,14.84
2018-11-10T12:55:24.430Z,15.63
2018-11-10T12:57:52.952Z,15.76
2018-11-10T13:00:21.266Z,15.53
2018-11-10T13:02:49.646Z,15.00
2018-11-10T13:05:18.007Z,15.98
2018-11-10T13:07:47.319Z,14.72
2018-11-10T13:10:15.654Z,15.15
2018-11-10T13:12:44.524Z,14.48
2018-11-10T13:15:13.030Z,15.25
2018-11-10T13:17:41.647Z,15.28
2018-11-10T13:20:12.568Z,15.38
2018-11-10T13:22:41.035Z,15.44
2018-11-10T13:25:11.723Z,15.92
2018-11-10T13:27:40.178Z,14.64
2018-11-10T13:30:09.975Z,14.81
2018-11-10T13:32:38.474Z,13.97
2018-11-10T13:35:07.626Z,13.37
2018-11-10T13:37:36.410Z,13.80
2018-11-10T13:40:04.999Z,13.55
2018-11-10T13:42:33.734Z,13.43
2018-11-10T13:45:02.383Z,13.71
2018-11-10T13:47:30.948Z,13.64
2018-11-10T13:49:59.747Z,13.86
2018-11-10T13:52:28.564Z,13.61
2018-11-10T13:54:56.652Z,14.04
2018-11-10T13:57:25.119Z,13.72
2018-11-10T13:59:53.591Z,13.93
2018-11-10T14:02:22.038Z,14.23
2018-11-10T14:04:50.479Z,14.67
2018-11-10T14:07:18.959Z,14.56
2018-11-10T14:09:47.406Z,13.92
2018-11-10T14:12:15.881Z,14.58
2018-11-10T14:14:44.339Z,14.31
2018-11-10T14:17:12.867Z,14.43
2018-11-10T14:19:41.379Z,14.13
2018-11-10T14:22:09.916Z,14.21
2018-11-10T14:24:38.338Z,14.37
2018-11-10T14:27:06.727Z,14.84
2018-11-10T14:29:35.159Z,14.33
2018-11-10T14:32:03.688Z,14.75
2018-11-10T14:34:32.119Z,14.36
2018-11-10T14:37:00.592Z,14.25
2018-11-10T14:39:29.047Z,13.92
2018-11-10T14:41:57.547Z,13.94
2018-11-10T14:44:26.040Z,13.81
2018-11-10T14:46:54.528Z,14.82
2018-11-10T14:49:22.968Z,14.06
2018-11-10T14:51:51.412Z,13.31
2018-11-10T14:54:19.859Z,13.53
2018-11-10T14:56:48.307Z,13.36
2018-11-10T14:59:16.733Z,13.79
2018-11-10T15:01:45.160Z,14.12
2018-11-10T15:04:13.771Z,14.18
2018-11-10T15:06:42.243Z,14.02
2018-11-10T15:09:11.151Z,14.15
2018-11-10T15:11:39.817Z,14.20
2018-11-10T15:14:08.348Z,13.93
2018-11-10T15:16:36.995Z,14.22
2018-11-10T15:19:05.519Z,14.34
2018-11-10T15:21:33.948Z,14.22
2018-11-10T15:24:02.403Z,14.15
2018-11-10T15:26:30.853Z,14.51
2018-11-10T15:28:59.464Z,14.48
2018-11-10T15:31:27.925Z,14.38
2018-11-10T15:33:56.446Z,14.90
2018-11-10T15:36:24.882Z,14.87
2018-11-10T15:38:53.604Z,13.66
2018-11-10T15:41:22.169Z,14.96
2018-11-10T15:43:50.642Z,13.57
2018-11-10T15:46:19.177Z,14.38
2018-11-10T15:48:47.715Z,14.33
2018-11-10T15:51:16.224Z,14.88
2018-11-10T15:53:44.675Z,14.73
2018-11-10T15:56:13.110Z,14.98
2018-11-10T15:58:41.679Z,14.27
2018-11-10T16:01:10.227Z,13.45
2018-11-10T16:03:38.779Z,13.66
2018-11-10T16:06:07.242Z,13.04
2018-11-10T16:08:35.727Z,13.01
2018-11-10T16:11:04.230Z,13.18
2018-11-10T16:13:32.756Z,13.35
2018-11-10T16:16:01.176Z,13.19
2018-11-10T16:18:30.084Z,13.54
2018-11-10T16:20:58.617Z,13.92
2018-11-10T16:23:27.002Z,13.29
2018-11-10T16:25:55.897Z,13.82
2018-11-10T16:28:24.307Z,13.41
2018-11-10T16:30:52.816Z,13.07
2018-11-10T16:33:21.287Z,13.74
2018-11-10T16:35:49.727Z,13.71
2018-11-10T16:38:18.211Z,13.77
2018-11-10T16:40:46.643Z,13.29
2018-11-10T16:43:15.069Z,13.30
2018-11-10T16:45:43.503Z,14.10
2018-11-10T16:48:11.986Z,13.53
2018-11-10T16:50:40.419Z,13.62
2018-11-10T16:53:08.868Z,13.92
2018-11-10T16:55:37.392Z,13.00
2018-11-10T16:58:06.321Z,13.70
2018-11-10T17:00:34.805Z,13.14
2018-11-10T17:03:03.195Z,13.04
2018-11-10T17:05:31.573Z,13.61
2018-11-10T17:08:00.028Z,13.35
2018-11-10T17:10:28.687Z,13.44
2018-11-10T17:12:57.082Z,13.70
2018-11-10T17:15:25.484Z,14.47
2018-11-10T17:17:53.910Z,13.84
2018-11-10T17:20:22.775Z,13.75
2018-11-10T17:22:51.164Z,14.12
2018-11-10T17:25:19.587Z,14.91
2018-11-10T17:27:48.010Z,13.87
2018-11-10T17:30:18.180Z,13.78
2018-11-10T17:32:46.658Z,13.88
2018-11-10T17:35:15.278Z,13.71
2018-11-10T17:37:43.942Z,14.17
2018-11-10T17:40:13.211Z,13.92
2018-11-10T17:42:41.639Z,13.29
2018-11-10T17:45:11.984Z,13.81
2018-11-10T17:47:40.691Z,13.56
2018-11-10T17:50:10.132Z,14.28
2018-11-10T17:52:39.293Z,14.05
2018-11-10T17:55:08.644Z,13.82
2018-11-10T17:57:37.161Z,14.07
2018-11-10T18:00:06.106Z,13.68
2018-11-10T18:02:34.633Z,14.05
2018-11-10T18:05:03.130Z,14.54
2018-11-10T18:07:31.990Z,14.23
2018-11-10T18:10:00.412Z,13.97
2018-11-10T18:12:28.859Z,14.08
2018-11-10T18:14:57.277Z,14.13
2018-11-10T18:17:25.827Z,13.81
2018-11-10T18:19:54.263Z,14.24
2018-11-10T18:22:22.703Z,14.38
2018-11-10T18:24:51.167Z,14.44
2018-11-10T18:27:19.630Z,14.96
2018-11-10T18:29:48.267Z,15.19
2018-11-10T18:32:16.753Z,14.82
2018-11-10T18:34:45.227Z,13.84
2018-11-10T18:37:13.644Z,13.87
2018-11-10T18:39:42.123Z,14.22
2018-11-10T18:42:10.540Z,14.88
2018-11-10T18:44:39.007Z,14.86
2018-11-10T18:47:07.604Z,14.94
2018-11-10T18:49:35.999Z,13.88
2018-11-10T18:52:04.377Z,14.28
2018-11-10T18:54:32.667Z,14.97
2018-11-10T18:57:01.028Z,15.35
2018-11-10T18:59:29.350Z,14.79
2018-11-10T19:01:57.678Z,14.79
2018-11-10T19:04:26.027Z,14.48
2018-11-10T19:06:54.355Z,14.15
2018-11-10T19:09:22.815Z,14.75
2018-11-10T19:11:51.159Z,14.25
2018-11-10T19:14:19.528Z,13.97
2018-11-10T19:16:48.115Z,14.29
2018-11-10T19:19:16.452Z,14.54
2018-11-10T19:21:44.940Z,14.32
2018-11-10T19:24:13.339Z,14.40
2018-11-10T19:26:41.766Z,15.32
2018-11-10T19:29:10.258Z,15.28
2018-11-10T19:31:38.663Z,15.16
2018-11-10T19:34:07.008Z,14.29
2018-11-10T19:36:35.394Z,15.27
2018-11-10T19:39:04.981Z,13.98
2018-11-10T19:41:33.347Z,14.80
2018-11-10T19:44:01.687Z,13.74
2018-11-10T19:46:30.085Z,14.63
2018-11-10T19:48:59.427Z,14.54
2018-11-10T19:51:27.995Z,14.80
2018-11-10T19:53:56.239Z,14.82
2018-11-10T19:56:24.575Z,15.43
2018-11-10T19:58:52.904Z,14.98
2018-11-10T20:01:21.280Z,15.09
2018-11-10T20:03:49.638Z,14.95
2018-11-10T20:06:17.971Z,14.43
2018-11-10T20:08:46.291Z,13.72
2018-11-10T20:11:14.673Z,14.05
2018-11-10T20:13:42.983Z,14.75
2018-11-10T20:16:11.292Z,14.86
2018-11-10T20:18:40.219Z,14.32
2018-11-10T20:21:08.541Z,13.86
2018-11-10T20:23:36.871Z,14.61
2018-11-10T20:26:05.455Z,14.86
2018-11-10T20:28:34.330Z,14.09
2018-11-10T20:31:02.887Z,14.28
2018-11-10T20:33:32.125Z,14.69
2018-11-10T20:36:00.453Z,13.93
2018-11-10T20:38:28.812Z,13.79
2018-11-10T20:40:57.188Z,14.35
2018-11-10T20:43:25.531Z,14.23
2018-11-10T20:45:53.850Z,14.64
2018-11-10T20:48:22.313Z,14.90
2018-11-10T20:50:50.624Z,15.18
2018-11-10T20:53:19.251Z,14.54
2018-11-10T20:55:47.588Z,15.06
2018-11-10T20:58:15.935Z,14.95
2018-11-10T21:00:44.396Z,14.40
2018-11-10T21:03:12.720Z,14.69
2018-11-10T21:05:41.146Z,15.05
2018-11-10T21:08:09.412Z,14.65
2018-11-10T21:10:37.735Z,14.59
2018-11-10T21:13:06.105Z,14.42
2018-11-10T21:15:34.487Z,14.99
2018-11-10T21:18:02.883Z,14.30
2018-11-10T21:20:31.267Z,14.46
2018-11-10T21:22:59.850Z,14.93
2018-11-10T21:25:28.378Z,15.37
2018-11-10T21:27:56.863Z,15.07
2018-11-10T21:30:25.380Z,15.32
2018-11-10T21:32:53.827Z,14.69
2018-11-10T21:35:22.438Z,14.46
2018-11-10T21:37:50.738Z,15.33
2018-11-10T21:40:20.371Z,15.29
2018-11-10T21:42:48.995Z,14.32
2018-11-10T21:45:17.935Z,14.77
2018-11-10T21:47:46.666Z,15.06
2018-11-10T21:50:17.041Z,15.71
2018-11-10T21:52:45.849Z,15.27
2018-11-10T21:55:16.316Z,15.57
2018-11-10T21:57:45.464Z,15.13
2018-11-10T22:00:15.691Z,15.42
2018-11-10T22:02:44.935Z,15.14
2018-11-10T22:05:13.312Z,15.32
2018-11-10T22:07:41.811Z,14.68
2018-11-10T22:10:12.287Z,15.47
2018-11-10T22:12:40.824Z,15.46
2018-11-10T22:15:12.196Z,15.02
2018-11-10T22:17:41.163Z,14.74
2018-11-10T22:20:10.949Z,14.86
2018-11-10T22:22:39.679Z,14.91
2018-11-10T22:25:09.011Z,15.40
2018-11-10T22:27:38.254Z,15.32
2018-11-10T22:30:07.796Z,15.69
2018-11-10T22:32:36.267Z,15.64
2018-11-10T22:35:05.015Z,15.50
2018-11-10T22:37:33.560Z,15.08
2018-11-10T22:40:02.004Z,14.23
2018-11-10T22:42:30.449Z,14.83
2018-11-10T22:44:58.883Z,14.64
2018-11-10T22:47:27.400Z,14.69
2018-11-10T22:49:55.783Z,15.89
2018-11-10T22:52:24.211Z,15.15
2018-11-10T22:54:52.664Z,14.40
2018-11-10T22:57:21.092Z,14.69
2018-11-10T22:59:49.558Z,15.10
2018-11-10T23:02:18.087Z,15.62
2018-11-10T23:04:46.586Z,15.14
2018-11-10T23:07:15.115Z,14.74
2018-11-10T23:09:43.526Z,15.32
2018-11-10T23:12:12.008Z,14.13
2018-11-10T23:14:40.380Z,14.87
2018-11-10T23:17:08.798Z,14.95
2018-11-10T23:19:37.175Z,14.45
2018-11-10T23:22:05.748Z,14.36
2018-11-10T23:24:34.075Z,15.22
2018-11-10T23:27:02.451Z,15.36
2018-11-10T23:29:30.876Z,14.87
2018-11-10T23:31:59.312Z,15.25
2018-11-10T23:34:27.795Z,15.38
2018-11-10T23:36:56.222Z,15.60
2018-11-10T23:39:24.693Z,15.85
2018-11-10T23:41:53.096Z,15.73
2018-11-10T23:44:21.514Z,15.48
2018-11-10T23:46:49.952Z,15.77
2018-11-10T23:49:18.332Z,15.06
2018-11-10T23:51:46.826Z,15.05
2018-11-10T23:56:42.688Z,14.22
2018-11-10T23:59:11.124Z,14.11
